Vremea mâine în Bucecea - Romania

Vrei sa afli care e starea vremii acum in Botosani - Romania? Dorim sa iti furnizam starea vremii pentru Botosani - Romania. Starea vremii Botosani - Romania pentru astazi.

Vremea mâine în Bucecea

Temperatura minimă:
13.6 °C

Temperatura maximă:
20.3 °C

Mâine va fi: Ploi moderate
Precipitații: 90 %
Umiditate: 81%
Viteza maximă vânt mâine:
13.7 km/h

Evoluția vremii in Bucecea pe ore mâine

Ora: 18:00
Temperatura: °C
Sansa de precipitatii: %
Ora Descriere Temp Se simte Precipitatii Umiditate Vant
00:0014.6°14°0%73%S 10.8 KM/H
01:0014.4°13.8°0%73%S 10.8 KM/H
02:0014.1°13.4°0%74%S 10.4 KM/H
03:00Innorat13.9°14.3°0%75%SSW 4.7 KM/H
04:00Burniță ușoară14.7°15.5°100%76%SW 3.6 KM/H
05:00Ploi usoare14.6°15°100%83%WSW 5 KM/H
06:00Ploaie ușoară14.2°14.8°100%91%N 4.3 KM/H
07:00Ploi usoare14.2°14.2°100%94%E 2.9 KM/H
08:00Ploi usoare15°15°100%91%SE 7.9 KM/H
09:00Ploi usoare15.8°15.8°100%86%SE 9 KM/H
10:00Ploi usoare17.4°17.4°100%79%ESE 9.4 KM/H
11:00Ploi usoare18.3°18.3°100%76%ESE 13.3 KM/H
12:00Ploi usoare18.9°18.9°100%73%SE 11.9 KM/H
13:00Patchy rain nearby18.8°18.9°100%72%ESE 8.3 KM/H
14:00Ploi usoare20.3°20.3°100%67%E 8.3 KM/H
15:00Ploi usoare20.2°20.2°100%68%ENE 9.4 KM/H
16:00Ploi usoare19°19°100%74%NE 12.2 KM/H
17:00Ploi usoare17.3°17.3°100%83%NNE 12.6 KM/H
18:00Ploi usoare17°17.1°100%84%NE 13.7 KM/H
19:00Ploi usoare16.8°16.8°100%86%NE 12.2 KM/H
20:00Ploi usoare15.5°15.5°100%90%NNE 9.4 KM/H
21:00Patchy rain nearby14.3°14.1°100%92%NNE 7.9 KM/H
22:00Burniță ușoară13.9°14.4°100%93%N 4 KM/H
23:00Ploi usoare13.6°14.3°100%93%N 3.6 KM/H




tutorials